Back to top

Worland, WY weather

Worland Municipal Airport, Worland, WY: 7/02/2020 12:53
Visibility10 statute milesclear sky
View 7-Day Forecast
Area Summary
Sky/CloudsSky Clear
Weather [last 24 hours]None
Pressure29.96 in.Hg (1015 hPa)
Dew Point35.1 °F (1.7 °C)
Relative Humidity17.4 %
Temperature84 °F (28.9 °C)red thermometer
Reading TimeMinimum to Maximum Temperature
6-hr ending 7/2@11:5353.1 °F to 79 °F (11.7 °C to 26.1 °C)
6-hr ending 7/2@05:5350 °F to 64.9 °F (10 °C to 18.3 °C)
6-hr ending 7/1@23:5360.1 °F to 84 °F (15.6 °C to 28.9 °C)
6-hr ending 7/1@17:5377 °F to 84 °F (25 °C to 28.9 °C)
24-hr ending 7/2@00:5344.1 °F to 84 °F (6.7 °C to 28.9 °C)
Wind5.75 MPH (5 KT) green arrow pointing 180 degrees
Wind FromSouth (190 Degrees)
Rolling 24-hr Peak Wind35.7 MPH (31 KT) on 7/1@15:42
Rolling 24-hr Peak Wind FromWest (260 Degrees)
Twilight Begins04:56Sunshine Yesterday
Sunrise05:33N/A
Sunset20:59
Twilight Ends21:36
METARKWRL 021853Z AUTO 19005KT 10SM CLR 29/02 A2996 RMK AO2 SLP101 T02890017
Tags: